Time,TemperatureF,DewpointF,PressureIn,WindDirection,WindDirectionDegrees,WindSpeedMPH,WindSpeedGustMPH,Humidity,HourlyPrecipIn,Conditions,Clouds,dailyrainin,SoftwareType,DateUTC
2013-08-07 00:05:00,79.2,72.1,29.85,North,-999,0.0,0.0,79,0.00,,,-99.99,WeatherLink 5.7,2013-08-07 04:05:00,
2013-08-07 00:20:00,78.9,71.8,29.86,North,-999,0.0,0.0,79,0.00,,,-99.99,WeatherLink 5.7,2013-08-07 04:20:00,
2013-08-07 00:34:00,78.7,72.0,29.86,North,-999,0.0,0.0,80,0.00,,,-99.99,WeatherLink 5.7,2013-08-07 04:34:00,
2013-08-07 00:50:00,78.6,71.9,29.86,North,-999,0.0,0.0,80,0.00,,,-99.99,WeatherLink 5.7,2013-08-07 04:50:00,
2013-08-07 01:05:00,78.5,72.2,29.86,North,-999,0.0,0.0,81,0.00,,,-99.99,WeatherLink 5.7,2013-08-07 05:05:00,
2013-08-07 01:19:00,78.3,72.0,29.85,North,-999,0.0,0.0,81,0.00,,,-99.99,WeatherLink 5.7,2013-08-07 05:19:00,
2013-08-07 01:35:00,78.2,72.3,29.85,North,-999,0.0,0.0,82,0.00,,,-99.99,WeatherLink 5.7,2013-08-07 05:35:00,
2013-08-07 01:50:00,78.1,72.2,29.85,North,-999,0.0,0.0,82,0.00,,,-99.99,WeatherLink 5.7,2013-08-07 05:50:00,
2013-08-07 02:05:00,78.1,72.2,29.84,North,-999,0.0,0.0,82,0.00,,,-99.99,WeatherLink 5.7,2013-08-07 06:05:00,
2013-08-07 02:20:00,77.9,72.0,29.84,North,-999,0.0,0.0,82,0.00,,,-99.99,WeatherLink 5.7,2013-08-07 06:20:00,
2013-08-07 02:34:00,77.9,72.3,29.83,North,-999,0.0,0.0,83,0.00,,,-99.99,WeatherLink 5.7,2013-08-07 06:34:00,
2013-08-07 02:50:00,77.9,72.3,29.83,North,-999,0.0,0.0,83,0.00,,,-99.99,WeatherLink 5.7,2013-08-07 06:50:00,
2013-08-07 03:05:00,77.9,72.7,29.83,North,-999,0.0,0.0,84,0.00,,,-99.99,WeatherLink 5.7,2013-08-07 07:05:00,
2013-08-07 03:19:00,77.9,72.7,29.82,North,-999,0.0,0.0,84,0.00,,,-99.99,WeatherLink 5.7,2013-08-07 07:19:00,
2013-08-07 03:34:00,77.9,73.0,29.82,North,0,0.0,1.0,85,0.00,,,-99.99,WeatherLink 5.7,2013-08-07 07:34:00,
2013-08-07 03:49:00,78.0,73.1,29.81,North,-999,0.0,0.0,85,0.00,,,-99.99,WeatherLink 5.7,2013-08-07 07:49:00,
2013-08-07 04:05:00,78.1,73.2,29.81,North,-999,0.0,0.0,85,0.00,,,-99.99,WeatherLink 5.7,2013-08-07 08:05:00,
2013-08-07 04:19:00,78.1,73.2,29.81,North,-999,0.0,0.0,85,0.00,,,-99.99,WeatherLink 5.7,2013-08-07 08:19:00,
2013-08-07 04:35:00,77.9,73.4,29.81,North,-999,0.0,0.0,86,0.00,,,-99.99,WeatherLink 5.7,2013-08-07 08:35:00,
2013-08-07 04:49:00,77.9,73.4,29.82,North,-999,0.0,0.0,86,0.00,,,-99.99,WeatherLink 5.7,2013-08-07 08:49:00,
2013-08-07 05:05:00,77.7,73.5,29.82,North,-999,0.0,0.0,87,0.00,,,-99.99,WeatherLink 5.7,2013-08-07 09:05:00,
2013-08-07 05:19:00,77.7,73.5,29.81,North,-999,0.0,0.0,87,0.00,,,-99.99,WeatherLink 5.7,2013-08-07 09:19:00,
2013-08-07 05:35:00,77.8,73.6,29.81,North,-999,0.0,0.0,87,0.00,,,-99.99,WeatherLink 5.7,2013-08-07 09:35:00,
2013-08-07 05:49:00,77.9,74.1,29.82,North,-999,0.0,0.0,88,0.00,,,-99.99,WeatherLink 5.7,2013-08-07 09:49:00,
2013-08-07 06:05:00,77.9,74.1,29.82,North,-999,0.0,0.0,88,0.00,,,-99.99,WeatherLink 5.7,2013-08-07 10:05:00,
2013-08-07 06:19:00,77.9,74.1,29.83,North,-999,0.0,0.0,88,0.00,,,-99.99,WeatherLink 5.7,2013-08-07 10:19:00,
2013-08-07 06:34:00,77.9,74.1,29.82,North,-999,0.0,0.0,88,0.00,,,-99.99,WeatherLink 5.7,2013-08-07 10:34:00,
2013-08-07 06:50:00,77.9,74.4,29.83,North,-999,0.0,0.0,89,0.00,,,-99.99,WeatherLink 5.7,2013-08-07 10:50:00,
2013-08-07 07:05:00,77.9,74.4,29.83,North,-999,0.0,0.0,89,0.00,,,-99.99,WeatherLink 5.7,2013-08-07 11:05:00,
2013-08-07 07:19:00,77.9,74.4,29.84,North,0,0.0,3.0,89,0.00,,,-99.99,WeatherLink 5.7,2013-08-07 11:19:00,
2013-08-07 07:34:00,77.9,74.4,29.85,North,-999,0.0,0.0,89,0.00,,,-99.99,WeatherLink 5.7,2013-08-07 11:34:00,
2013-08-07 07:49:00,77.9,74.4,29.85,North,-999,0.0,0.0,89,0.00,,,-99.99,WeatherLink 5.7,2013-08-07 11:49:00,
2013-08-07 08:05:00,78.2,75.0,29.85,North,-999,0.0,0.0,90,0.00,,,-99.99,WeatherLink 5.7,2013-08-07 12:05:00,
2013-08-07 08:20:00,78.6,75.4,29.85,North,-999,0.0,0.0,90,0.00,,,-99.99,WeatherLink 5.7,2013-08-07 12:20:00,
2013-08-07 08:34:00,79.1,75.6,29.85,North,0,0.0,4.0,89,0.00,,,-99.99,WeatherLink 5.7,2013-08-07 12:34:00,
2013-08-07 08:49:00,79.7,75.8,29.86,North,0,0.0,3.0,88,0.00,,,-99.99,WeatherLink 5.7,2013-08-07 12:49:00,
2013-08-07 09:05:00,80.2,76.3,29.86,North,0,0.0,5.0,88,0.00,,,-99.99,WeatherLink 5.7,2013-08-07 13:05:00,
2013-08-07 09:19:00,81.1,76.9,29.86,North,0,0.0,2.0,87,0.00,,,-99.99,WeatherLink 5.7,2013-08-07 13:19:00,
2013-08-07 09:34:00,82.2,77.6,29.86,North,0,0.0,5.0,86,0.00,,,-99.99,WeatherLink 5.7,2013-08-07 13:34:00,
2013-08-07 09:50:00,83.5,77.8,29.87,North,0,0.0,6.0,83,0.00,,,-99.99,WeatherLink 5.7,2013-08-07 13:50:00,
2013-08-07 10:05:00,84.4,78.3,29.87,North,0,0.0,4.0,82,0.00,,,-99.99,WeatherLink 5.7,2013-08-07 14:05:00,
2013-08-07 10:19:00,85.3,78.4,29.88,North,0,0.0,6.0,80,0.00,,,-99.99,WeatherLink 5.7,2013-08-07 14:19:00,
2013-08-07 10:34:00,86.2,77.7,29.88,North,0,0.0,5.0,76,0.00,,,-99.99,WeatherLink 5.7,2013-08-07 14:34:00,
2013-08-07 10:50:00,87.2,78.3,29.88,North,0,0.0,5.0,75,0.00,,,-99.99,WeatherLink 5.7,2013-08-07 14:50:00,
2013-08-07 11:05:00,88.3,78.1,29.88,North,0,0.0,1.0,72,0.00,,,-99.99,WeatherLink 5.7,2013-08-07 15:05:00,
2013-08-07 11:19:00,88.9,77.8,29.88,North,0,0.0,6.0,70,0.00,,,-99.99,WeatherLink 5.7,2013-08-07 15:19:00,
2013-08-07 11:34:00,89.4,77.0,29.88,North,0,0.0,6.0,67,0.00,,,-99.99,WeatherLink 5.7,2013-08-07 15:34:00,
2013-08-07 11:49:00,90.0,77.6,29.88,North,0,0.0,1.0,67,0.00,,,-99.99,WeatherLink 5.7,2013-08-07 15:49:00,
2013-08-07 12:05:00,90.7,76.8,29.88,North,0,0.0,1.0,64,0.00,,,-99.99,WeatherLink 5.7,2013-08-07 16:05:00,
2013-08-07 12:19:00,91.4,77.0,29.88,North,0,0.0,9.0,63,0.00,,,-99.99,WeatherLink 5.7,2013-08-07 16:19:00,
2013-08-07 12:34:00,92.2,76.8,29.87,North,0,0.0,2.0,61,0.00,,,-99.99,WeatherLink 5.7,2013-08-07 16:34:00,
2013-08-07 12:49:00,92.5,76.6,29.87,North,0,0.0,9.0,60,0.00,,,-99.99,WeatherLink 5.7,2013-08-07 16:49:00,
2013-08-07 13:05:00,93.0,76.6,29.87,North,0,0.0,5.0,59,0.00,,,-99.99,WeatherLink 5.7,2013-08-07 17:05:00,
2013-08-07 13:19:00,93.4,76.4,29.86,North,0,0.0,6.0,58,0.00,,,-99.99,WeatherLink 5.7,2013-08-07 17:19:00,
2013-08-07 13:34:00,93.7,76.7,29.86,North,0,0.0,1.0,58,0.00,,,-99.99,WeatherLink 5.7,2013-08-07 17:34:00,
2013-08-07 13:49:00,94.4,75.2,29.86,North,-999,0.0,0.0,54,0.00,,,-99.99,WeatherLink 5.7,2013-08-07 17:49:00,
2013-08-07 14:05:00,94.8,75.0,29.85,North,0,0.0,9.0,53,0.00,,,-99.99,WeatherLink 5.7,2013-08-07 18:05:00,
2013-08-07 14:19:00,94.4,75.2,29.85,North,-999,0.0,0.0,54,0.00,,,-99.99,WeatherLink 5.7,2013-08-07 18:19:00,
2013-08-07 14:34:00,94.0,74.8,29.85,North,0,0.0,1.0,54,0.00,,,-99.99,WeatherLink 5.7,2013-08-07 18:34:00,
2013-08-07 14:49:00,92.8,73.7,29.85,North,0,0.0,6.0,54,0.00,,,-99.99,WeatherLink 5.7,2013-08-07 18:49:00,
2013-08-07 15:05:00,90.9,72.0,29.85,North,-999,0.0,0.0,54,0.00,,,-99.99,WeatherLink 5.7,2013-08-07 19:05:00,
2013-08-07 15:19:00,88.6,71.9,29.84,North,-999,0.0,0.0,58,0.05,,,-99.99,WeatherLink 5.7,2013-08-07 19:19:00,
2013-08-07 15:34:00,86.7,72.1,29.85,North,0,0.0,1.0,62,0.09,,,-99.99,WeatherLink 5.7,2013-08-07 19:34:00,
2013-08-07 15:49:00,83.5,71.8,29.85,North,0,0.0,9.0,68,0.28,,,-99.99,WeatherLink 5.7,2013-08-07 19:49:00,
2013-08-07 16:05:00,80.3,70.4,29.85,North,0,0.0,1.0,72,0.39,,,-99.99,WeatherLink 5.7,2013-08-07 20:05:00,
2013-08-07 16:19:00,79.0,70.4,29.84,North,0,0.0,1.0,75,0.41,,,-99.99,WeatherLink 5.7,2013-08-07 20:19:00,
2013-08-07 16:34:00,78.7,71.3,29.83,North,-999,0.0,0.0,78,0.38,,,-99.99,WeatherLink 5.7,2013-08-07 20:34:00,
2013-08-07 16:49:00,79.1,72.4,29.83,North,-999,0.0,0.0,80,0.19,,,-99.99,WeatherLink 5.7,2013-08-07 20:49:00,
2013-08-07 17:05:00,79.9,73.2,29.83,North,-999,0.0,0.0,80,0.09,,,-99.99,WeatherLink 5.7,2013-08-07 21:05:00,
2013-08-07 17:19:00,80.7,74.3,29.82,North,0,0.0,7.0,81,0.02,,,-99.99,WeatherLink 5.7,2013-08-07 21:19:00,
2013-08-07 17:34:00,80.9,74.5,29.82,North,-999,0.0,0.0,81,0.01,,,-99.99,WeatherLink 5.7,2013-08-07 21:34:00,
2013-08-07 17:49:00,80.6,74.2,29.81,North,-999,0.0,0.0,81,0.01,,,-99.99,WeatherLink 5.7,2013-08-07 21:49:00,
2013-08-07 18:05:00,80.5,74.1,29.81,North,-999,0.0,0.0,81,0.00,,,-99.99,WeatherLink 5.7,2013-08-07 22:05:00,
2013-08-07 18:19:00,80.4,74.0,29.83,North,-999,0.0,0.0,81,0.00,,,-99.99,WeatherLink 5.7,2013-08-07 22:19:00,
2013-08-07 18:34:00,80.5,74.5,29.82,North,-999,0.0,0.0,82,0.00,,,-99.99,WeatherLink 5.7,2013-08-07 22:34:00,
2013-08-07 18:49:00,80.6,74.6,29.81,North,-999,0.0,0.0,82,0.00,,,-99.99,WeatherLink 5.7,2013-08-07 22:49:00,
2013-08-07 19:05:00,80.5,74.5,29.83,North,-999,0.0,0.0,82,0.00,,,-99.99,WeatherLink 5.7,2013-08-07 23:05:00,
2013-08-07 19:19:00,80.5,74.5,29.84,North,-999,0.0,0.0,82,0.00,,,-99.99,WeatherLink 5.7,2013-08-07 23:19:00,
2013-08-07 19:34:00,80.1,74.1,29.86,North,0,1.0,17.0,82,0.00,,,-99.99,WeatherLink 5.7,2013-08-07 23:34:00,
2013-08-07 19:49:00,79.4,73.4,29.85,North,0,1.0,15.0,82,0.00,,,-99.99,WeatherLink 5.7,2013-08-07 23:49:00,
2013-08-07 20:05:00,78.5,72.5,29.85,North,0,0.0,6.0,82,0.00,,,-99.99,WeatherLink 5.7,2013-08-08 00:05:00,
2013-08-07 20:19:00,78.0,72.1,29.84,North,-999,0.0,0.0,82,0.00,,,-99.99,WeatherLink 5.7,2013-08-08 00:19:00,
2013-08-07 20:34:00,77.7,72.1,29.84,North,-999,0.0,0.0,83,0.00,,,-99.99,WeatherLink 5.7,2013-08-08 00:34:00,
2013-08-07 20:49:00,77.6,72.4,29.85,North,-999,0.0,0.0,84,0.00,,,-99.99,WeatherLink 5.7,2013-08-08 00:49:00,
2013-08-07 21:05:00,77.5,72.3,29.85,North,-999,0.0,0.0,84,0.00,,,-99.99,WeatherLink 5.7,2013-08-08 01:05:00,
2013-08-07 21:19:00,77.4,72.2,29.85,North,-999,0.0,0.0,84,0.00,,,-99.99,WeatherLink 5.7,2013-08-08 01:19:00,
2013-08-07 21:34:00,77.3,72.1,29.85,North,-999,0.0,0.0,84,0.00,,,-99.99,WeatherLink 5.7,2013-08-08 01:34:00,
2013-08-07 21:49:00,77.2,72.3,29.84,North,-999,0.0,0.0,85,0.00,,,-99.99,WeatherLink 5.7,2013-08-08 01:49:00,
2013-08-07 22:04:00,77.3,72.4,29.84,North,-999,0.0,0.0,85,0.00,,,-99.99,WeatherLink 5.7,2013-08-08 02:04:00,
2013-08-07 22:19:00,77.4,72.5,29.85,North,-999,0.0,0.0,85,0.00,,,-99.99,WeatherLink 5.7,2013-08-08 02:19:00,
2013-08-07 22:34:00,77.3,72.8,29.85,North,-999,0.0,0.0,86,0.00,,,-99.99,WeatherLink 5.7,2013-08-08 02:34:00,
2013-08-07 22:49:00,77.2,72.7,29.86,North,-999,0.0,0.0,86,0.00,,,-99.99,WeatherLink 5.7,2013-08-08 02:49:00,
2013-08-07 23:05:00,77.2,72.7,29.86,North,-999,0.0,0.0,86,0.00,,,-99.99,WeatherLink 5.7,2013-08-08 03:05:00,
2013-08-07 23:19:00,77.3,73.1,29.87,North,-999,0.0,0.0,87,0.00,,,-99.99,WeatherLink 5.7,2013-08-08 03:19:00,
2013-08-07 23:34:00,77.4,73.2,29.87,North,-999,0.0,0.0,87,0.00,,,-99.99,WeatherLink 5.7,2013-08-08 03:34:00,
2013-08-07 23:49:00,77.6,73.4,29.87,North,-999,0.0,0.0,87,0.00,,,-99.99,WeatherLink 5.7,2013-08-08 03:49:00,